Time;durP1;ratioP1;P1;durP2;ratioP2;P2;SDS_P1;SDS_P2;PMS_P1;PMS_P2;Temp;Humidity;BMP_temperature;BMP_pressure;BME280_temperature;BME280_humidity;BME280_pressure;Samples;Min_cycle;Max_cycle;Signal;HPM_P1;HPM_P2
2023/04/13 00:00:09;;;;;;;3.37;1.57;;;6.60;99.90;;;;;;5087312;28;20032;-68
2023/04/13 00:02:37;;;;;;;5.20;1.55;;;6.70;99.90;;;;;;5072202;28;20118;-68
2023/04/13 00:05:12;;;;;;;2.67;1.15;;;6.70;99.90;;;;;;5066846;28;20040;-68
2023/04/13 00:07:38;;;;;;;5.25;1.02;;;6.70;99.90;;;;;;5081601;28;20039;-68
2023/04/13 00:10:09;;;;;;;3.75;1.10;;;6.70;99.90;;;;;;5091078;28;20036;-68
2023/04/13 00:12:39;;;;;;;3.67;1.00;;;6.60;99.90;;;;;;5090265;28;20044;-68
2023/04/13 00:15:06;;;;;;;3.15;0.88;;;6.50;99.90;;;;;;5083532;28;20056;-68
2023/04/13 00:17:32;;;;;;;2.30;0.70;;;6.30;99.90;;;;;;5082181;28;20780;-69
2023/04/13 00:19:58;;;;;;;2.60;0.67;;;6.20;99.90;;;;;;5090871;28;20048;-70
2023/04/13 00:22:26;;;;;;;1.75;0.70;;;6.00;99.90;;;;;;5086294;28;20047;-70
2023/04/13 00:24:56;;;;;;;2.67;0.93;;;5.90;99.90;;;;;;5069830;28;20078;-70
2023/04/13 00:27:26;;;;;;;1.77;0.75;;;5.80;99.90;;;;;;5090494;28;20472;-70
2023/04/13 00:29:55;;;;;;;1.85;0.63;;;5.70;99.90;;;;;;5073197;28;20040;-70
2023/04/13 00:32:21;;;;;;;1.95;0.63;;;5.70;99.90;;;;;;5070865;28;20032;-70
2023/04/13 00:34:47;;;;;;;2.75;0.98;;;5.70;99.90;;;;;;5088974;28;20127;-70
2023/04/13 00:37:13;;;;;;;5.37;1.07;;;5.70;99.90;;;;;;5090068;28;20147;-70
2023/04/13 00:39:39;;;;;;;2.92;0.75;;;5.70;99.90;;;;;;5089673;28;20042;-70
2023/04/13 00:44:31;;;;;;;3.00;1.20;;;5.70;99.90;;;;;;5539109;22;20315;-69
2023/04/13 00:46:57;;;;;;;3.63;1.00;;;5.60;99.90;;;;;;4987318;28;20068;-69
2023/04/13 00:49:22;;;;;;;2.93;1.00;;;5.70;99.90;;;;;;5015699;28;20045;-69
2023/04/13 00:51:49;;;;;;;2.17;0.90;;;5.60;99.90;;;;;;5013170;28;20053;-69
2023/04/13 00:54:18;;;;;;;3.03;0.63;;;5.60;99.90;;;;;;5012510;28;20048;-69
2023/04/13 00:56:44;;;;;;;4.80;0.75;;;5.60;99.90;;;;;;4995776;28;20037;-69
2023/04/13 00:59:11;;;;;;;3.27;0.83;;;5.60;99.90;;;;;;5018718;28;20033;-69
2023/04/13 01:01:45;;;;;;;2.33;1.30;;;5.60;99.90;;;;;;5018185;28;20641;-70
2023/04/13 01:04:17;;;;;;;3.10;1.10;;;5.50;99.90;;;;;;5005290;28;20515;-70
2023/04/13 01:06:50;;;;;;;4.50;1.40;;;5.60;99.90;;;;;;5012441;28;20053;-70
2023/04/13 01:09:27;;;;;;;4.22;1.50;;;5.60;99.90;;;;;;5012360;28;20064;-70
2023/04/13 01:12:10;;;;;;;4.30;1.75;;;5.60;99.90;;;;;;5017120;28;20060;-70
2023/04/13 01:14:43;;;;;;;4.30;1.17;;;5.50;99.90;;;;;;5012095;28;20041;-69
2023/04/13 01:17:20;;;;;;;4.57;1.20;;;5.50;99.90;;;;;;5014493;28;20067;-69
2023/04/13 01:19:58;;;;;;;2.70;0.70;;;5.50;99.90;;;;;;5013041;28;20049;-69
2023/04/13 01:22:27;;;;;;;3.63;0.90;;;5.50;99.90;;;;;;5012025;28;20045;-69
2023/04/13 01:25:27;;;;;;;3.42;0.90;;;5.60;99.90;;;;;;5014190;28;20056;-69
2023/04/13 01:27:59;;;;;;;2.97;1.40;;;5.60;99.90;;;;;;5013238;28;20508;-69
2023/04/13 01:30:27;;;;;;;4.60;1.40;;;5.70;99.90;;;;;;5000046;28;20049;-69
2023/04/13 01:32:54;;;;;;;6.25;1.30;;;5.70;99.90;;;;;;5015561;28;20449;-69
2023/04/13 01:35:21;;;;;;;5.35;1.42;;;5.70;99.90;;;;;;4995871;28;20563;-69
2023/04/13 01:37:51;;;;;;;2.47;1.00;;;5.70;99.90;;;;;;4998532;28;20046;-69
2023/04/13 01:40:20;;;;;;;3.00;1.20;;;5.70;99.90;;;;;;5014616;28;20045;-69
2023/04/13 01:42:46;;;;;;;3.67;1.00;;;5.70;99.90;;;;;;4998195;28;20044;-69
2023/04/13 01:45:17;;;;;;;2.45;1.08;;;5.70;99.90;;;;;;5019684;28;20070;-69
2023/04/13 01:48:00;;;;;;;3.50;1.35;;;5.70;99.90;;;;;;5026750;28;20052;-69
2023/04/13 01:50:29;;;;;;;4.20;1.25;;;5.70;99.90;;;;;;5044325;28;20041;-69
2023/04/13 01:52:59;;;;;;;2.33;1.40;;;5.80;99.90;;;;;;5027503;28;20096;-69
2023/04/13 01:55:26;;;;;;;3.35;1.08;;;5.80;99.90;;;;;;5009019;28;20038;-69
2023/04/13 01:57:56;;;;;;;3.70;1.10;;;5.80;99.90;;;;;;5011390;28;20049;-69
2023/04/13 02:00:22;;;;;;;2.97;1.20;;;5.80;99.90;;;;;;5011684;28;20128;-69
2023/04/13 02:02:47;;;;;;;2.57;0.73;;;5.80;99.90;;;;;;5003098;28;20129;-69
2023/04/13 02:05:13;;;;;;;2.37;1.00;;;5.80;99.90;;;;;;5026015;28;20112;-69
2023/04/13 02:07:41;;;;;;;2.47;0.90;;;5.80;99.90;;;;;;5027121;28;20045;-69
2023/04/13 02:10:07;;;;;;;4.95;0.95;;;5.80;99.90;;;;;;5014813;28;20125;-69
2023/04/13 02:12:33;;;;;;;3.25;1.20;;;5.80;99.90;;;;;;5028055;28;20049;-69
2023/04/13 02:15:00;;;;;;;3.33;0.95;;;5.80;99.90;;;;;;5021210;28;20506;-69
2023/04/13 02:17:29;;;;;;;2.33;0.98;;;5.80;99.90;;;;;;5013348;28;20140;-69
2023/04/13 02:19:56;;;;;;;2.17;1.13;;;5.80;99.90;;;;;;5011402;28;20045;-70
2023/04/13 02:22:22;;;;;;;4.82;1.17;;;5.80;99.90;;;;;;5018633;28;20528;-69
2023/04/13 02:24:49;;;;;;;2.92;1.00;;;5.80;99.90;;;;;;5000584;28;20041;-69
2023/04/13 02:27:16;;;;;;;3.55;1.00;;;5.80;99.90;;;;;;4993556;28;20712;-70
2023/04/13 02:29:42;;;;;;;2.00;0.88;;;5.80;99.90;;;;;;5018337;28;20125;-70
2023/04/13 02:32:08;;;;;;;1.98;1.02;;;5.80;99.90;;;;;;5007124;28;20068;-70
2023/04/13 02:34:34;;;;;;;4.13;1.20;;;5.80;99.90;;;;;;5010753;28;20049;-70
2023/04/13 02:37:01;;;;;;;2.33;0.98;;;5.80;99.90;;;;;;5002659;28;20146;-70
2023/04/13 02:39:27;;;;;;;4.15;1.17;;;5.90;99.90;;;;;;5009487;28;20045;-70
2023/04/13 02:41:53;;;;;;;3.40;1.05;;;5.80;99.90;;;;;;5002012;28;20128;-70
2023/04/13 02:44:18;;;;;;;2.23;1.00;;;5.80;99.90;;;;;;5008025;28;20081;-70
2023/04/13 02:46:44;;;;;;;4.53;1.50;;;5.80;99.90;;;;;;4990217;28;20045;-70
2023/04/13 02:49:10;;;;;;;5.65;1.33;;;5.80;99.90;;;;;;5002369;28;20038;-70
2023/04/13 02:51:36;;;;;;;3.33;1.60;;;5.80;99.90;;;;;;5010322;28;20041;-70
2023/04/13 02:54:02;;;;;;;4.47;1.30;;;5.80;99.90;;;;;;5002610;28;20136;-70
2023/04/13 02:56:29;;;;;;;3.53;1.00;;;5.80;99.90;;;;;;5027893;28;20041;-70
2023/04/13 02:58:56;;;;;;;4.25;1.45;;;5.80;99.90;;;;;;4992281;28;20725;-70
2023/04/13 03:01:23;;;;;;;3.10;1.45;;;5.80;99.90;;;;;;5013011;28;20037;-70
2023/04/13 03:03:50;;;;;;;2.85;1.30;;;5.80;99.90;;;;;;5014466;28;20043;-70
2023/04/13 03:06:16;;;;;;;3.03;1.42;;;5.80;99.90;;;;;;4995641;28;20041;-70
2023/04/13 03:08:42;;;;;;;2.58;1.10;;;5.80;99.90;;;;;;5014425;28;20046;-70
2023/04/13 03:11:10;;;;;;;4.32;1.52;;;5.90;99.90;;;;;;4997914;28;20049;-70
2023/04/13 03:13:36;;;;;;;2.63;1.38;;;5.90;99.90;;;;;;5013331;28;20108;-70
2023/04/13 03:16:03;;;;;;;5.00;1.10;;;5.90;99.90;;;;;;5012609;28;20456;-70
2023/04/13 03:18:29;;;;;;;1.48;0.93;;;5.90;99.90;;;;;;5005750;28;20060;-70
2023/04/13 03:20:55;;;;;;;0.83;0.60;;;5.80;99.90;;;;;;5012903;28;20828;-70
2023/04/13 03:23:21;;;;;;;1.37;0.50;;;5.90;99.90;;;;;;4997038;28;20033;-70
2023/04/13 03:25:46;;;;;;;1.48;0.50;;;5.80;99.90;;;;;;5016022;28;20076;-70
2023/04/13 03:28:12;;;;;;;2.13;0.50;;;5.80;99.90;;;;;;5006630;28;20037;-70
2023/04/13 03:30:38;;;;;;;2.10;0.40;;;5.70;99.90;;;;;;4995322;28;20041;-70
2023/04/13 03:33:03;;;;;;;3.10;0.50;;;5.70;99.90;;;;;;5012510;28;20526;-70
2023/04/13 03:35:29;;;;;;;2.27;0.30;;;5.70;99.90;;;;;;5015337;28;20045;-70
2023/04/13 03:37:55;;;;;;;3.70;0.50;;;5.50;99.90;;;;;;5013890;28;20037;-70
2023/04/13 03:40:20;;;;;;;3.50;0.60;;;5.50;99.90;;;;;;5024569;28;20045;-70
2023/04/13 03:42:46;;;;;;;1.20;0.57;;;5.40;99.90;;;;;;5010512;28;20052;-70
2023/04/13 03:45:12;;;;;;;2.93;0.77;;;5.30;99.90;;;;;;5007824;28;20540;-70
2023/04/13 03:47:38;;;;;;;2.87;0.70;;;5.30;99.90;;;;;;5007503;28;20046;-70
2023/04/13 03:50:04;;;;;;;4.00;0.90;;;5.20;99.90;;;;;;5012407;28;20041;-70
2023/04/13 03:52:30;;;;;;;4.40;0.95;;;5.20;99.90;;;;;;4996974;28;20056;-70
2023/04/13 03:54:56;;;;;;;2.50;0.70;;;5.20;99.90;;;;;;4996213;28;20042;-70
2023/04/13 03:57:22;;;;;;;5.30;1.00;;;5.10;99.90;;;;;;4997263;28;20033;-70
2023/04/13 03:59:48;;;;;;;4.63;0.80;;;5.10;99.90;;;;;;5007785;28;20375;-70
2023/04/13 04:02:13;;;;;;;5.00;1.20;;;5.00;99.90;;;;;;4997211;28;20033;-70
2023/04/13 04:04:39;;;;;;;4.23;0.60;;;4.90;99.90;;;;;;5013503;28;20108;-70
2023/04/13 04:07:05;;;;;;;4.73;0.67;;;4.90;99.90;;;;;;5013230;28;20045;-70
2023/04/13 04:09:31;;;;;;;5.13;0.70;;;4.90;99.90;;;;;;5016171;28;20037;-69
2023/04/13 04:11:56;;;;;;;5.10;0.73;;;4.80;99.90;;;;;;5012678;28;20114;-69
2023/04/13 04:14:23;;;;;;;6.00;0.83;;;4.80;99.90;;;;;;5007210;28;20048;-69
2023/04/13 04:16:49;;;;;;;2.58;0.85;;;4.90;99.90;;;;;;5012927;28;20038;-69
2023/04/13 04:19:14;;;;;;;6.87;0.90;;;4.90;99.90;;;;;;4996767;28;20187;-69
2023/04/13 04:21:45;;;;;;;3.87;1.00;;;5.00;99.90;;;;;;5005366;28;20049;-69
2023/04/13 04:24:19;;;;;;;4.30;1.02;;;5.00;99.90;;;;;;5012129;28;20179;-69
2023/04/13 04:26:49;;;;;;;3.42;0.90;;;5.00;99.90;;;;;;5012807;28;20161;-69
2023/04/13 04:29:21;;;;;;;6.72;1.10;;;5.00;99.90;;;;;;5012934;28;20096;-69
2023/04/13 04:31:51;;;;;;;3.92;1.05;;;5.00;99.90;;;;;;5011627;28;20052;-69
2023/04/13 04:34:18;;;;;;;8.55;1.23;;;5.00;99.90;;;;;;5005236;28;20810;-69
2023/04/13 04:36:51;;;;;;;9.65;1.98;;;5.00;99.90;;;;;;5011498;28;20033;-69
2023/04/13 04:39:25;;;;;;;6.78;1.13;;;5.00;99.90;;;;;;5012833;28;20042;-69
2023/04/13 04:41:53;;;;;;;6.00;0.82;;;5.00;99.90;;;;;;5008825;28;20052;-69
2023/04/13 04:44:23;;;;;;;4.25;0.85;;;5.00;99.90;;;;;;5011294;28;20088;-69
2023/04/13 04:46:51;;;;;;;7.53;1.30;;;5.00;99.90;;;;;;5015817;28;20495;-69
2023/04/13 04:49:20;;;;;;;4.68;0.70;;;5.00;99.90;;;;;;5022532;28;20112;-70
2023/04/13 04:51:47;;;;;;;11.38;1.10;;;5.00;99.90;;;;;;5028479;28;20049;-69
2023/04/13 04:54:15;;;;;;;8.85;1.40;;;5.00;99.90;;;;;;5002582;28;20064;-69
2023/04/13 04:56:41;;;;;;;10.07;1.55;;;5.00;99.90;;;;;;5016763;28;20116;-69
2023/04/13 04:59:07;;;;;;;6.80;1.27;;;5.00;99.90;;;;;;5028131;28;20231;-69
2023/04/13 05:01:33;;;;;;;8.00;1.83;;;4.90;99.90;;;;;;5024199;28;20045;-69
2023/04/13 05:04:00;;;;;;;11.50;1.20;;;4.90;99.90;;;;;;5020663;28;20041;-69
2023/04/13 05:06:31;;;;;;;6.93;1.40;;;5.00;99.90;;;;;;5026847;28;20132;-69
2023/04/13 05:08:58;;;;;;;7.43;1.55;;;5.00;99.90;;;;;;5028560;28;20515;-70
2023/04/13 05:11:25;;;;;;;11.80;1.63;;;5.10;99.90;;;;;;5018726;28;20053;-70
2023/04/13 05:13:51;;;;;;;5.88;2.25;;;5.20;99.90;;;;;;5024471;28;20041;-69
2023/04/13 05:16:17;;;;;;;10.90;1.45;;;5.40;99.90;;;;;;5011865;28;20100;-69
2023/04/13 05:18:45;;;;;;;6.70;1.50;;;5.60;99.90;;;;;;5019682;28;20046;-69
2023/04/13 05:21:11;;;;;;;6.38;1.20;;;5.70;99.90;;;;;;5020678;28;20042;-69
2023/04/13 05:23:37;;;;;;;9.57;1.65;;;5.70;99.90;;;;;;5006027;28;20042;-69
2023/04/13 05:26:03;;;;;;;9.43;1.43;;;5.80;99.90;;;;;;5009805;28;20111;-69
2023/04/13 05:28:29;;;;;;;8.33;1.77;;;6.00;99.90;;;;;;5025644;28;20501;-69
2023/04/13 05:31:02;;;;;;;4.67;1.20;;;6.10;99.90;;;;;;5027000;28;20052;-69
2023/04/13 05:33:29;;;;;;;12.63;1.70;;;6.20;99.90;;;;;;5004296;28;20648;-69
2023/04/13 05:35:55;;;;;;;7.88;1.30;;;6.30;99.90;;;;;;5020566;28;20111;-70
2023/04/13 05:38:21;;;;;;;9.35;1.30;;;6.30;99.90;;;;;;5026447;28;20452;-70
2023/04/13 05:40:47;;;;;;;5.40;0.87;;;6.30;99.90;;;;;;5015108;28;20041;-70
2023/04/13 05:43:13;;;;;;;6.33;0.63;;;6.40;99.90;;;;;;5025131;28;20640;-70
2023/04/13 05:45:39;;;;;;;5.47;0.90;;;6.40;99.90;;;;;;5011254;28;20057;-70
2023/04/13 05:48:05;;;;;;;5.80;1.00;;;6.40;99.90;;;;;;5008568;28;20342;-70
2023/04/13 05:50:31;;;;;;;3.15;1.00;;;6.40;99.90;;;;;;5018563;28;20072;-70
2023/04/13 05:52:57;;;;;;;7.57;1.40;;;6.40;99.90;;;;;;5017628;28;20065;-70
2023/04/13 05:55:26;;;;;;;5.57;1.60;;;6.40;99.90;;;;;;5020492;28;20306;-70
2023/04/13 05:57:52;;;;;;;4.47;1.35;;;6.40;99.90;;;;;;5024147;28;20772;-70
2023/04/13 06:00:20;;;;;;;5.55;1.60;;;6.40;99.90;;;;;;5019678;28;20113;-70
2023/04/13 06:02:48;;;;;;;8.05;1.90;;;6.40;99.90;;;;;;5016736;28;20038;-70
2023/04/13 06:05:15;;;;;;;5.13;1.45;;;6.30;99.90;;;;;;5003934;28;20111;-70
2023/04/13 06:07:43;;;;;;;5.45;1.73;;;6.40;99.90;;;;;;5021651;28;20050;-70
2023/04/13 06:10:14;;;;;;;12.13;2.30;;;6.50;99.90;;;;;;4995383;28;20053;-70
2023/04/13 06:12:40;;;;;;;9.73;2.10;;;6.60;99.90;;;;;;4997499;28;20046;-69
2023/04/13 06:15:06;;;;;;;8.55;1.75;;;6.80;99.90;;;;;;5006301;28;20119;-70
2023/04/13 06:17:32;;;;;;;8.02;2.53;;;6.90;99.90;;;;;;5006210;28;20146;-70
2023/04/13 06:19:58;;;;;;;11.25;2.55;;;7.00;99.90;;;;;;5011253;28;20060;-70
2023/04/13 06:22:24;;;;;;;12.67;2.67;;;7.10;99.90;;;;;;5015360;28;20034;-70
2023/04/13 06:24:50;;;;;;;6.33;2.50;;;7.10;99.90;;;;;;5025117;28;20045;-70
2023/04/13 06:27:17;;;;;;;9.55;1.85;;;7.20;99.90;;;;;;5010922;28;20048;-70
2023/04/13 06:29:46;;;;;;;9.57;2.10;;;7.40;99.90;;;;;;5010719;28;20041;-70
2023/04/13 06:32:12;;;;;;;8.35;1.88;;;7.50;99.90;;;;;;5010930;28;20041;-70
2023/04/13 06:34:37;;;;;;;9.80;1.87;;;7.60;99.90;;;;;;5018809;28;20047;-70
2023/04/13 06:37:03;;;;;;;10.40;2.47;;;7.60;99.90;;;;;;5026532;28;20454;-70
2023/04/13 06:39:30;;;;;;;9.80;1.90;;;7.70;99.90;;;;;;5009878;28;20673;-70
2023/04/13 06:41:56;;;;;;;10.23;2.45;;;7.90;99.90;;;;;;4994011;28;20124;-70
2023/04/13 06:44:23;;;;;;;7.63;1.50;;;8.10;99.90;;;;;;5031236;28;20076;-70
2023/04/13 06:46:49;;;;;;;7.63;1.70;;;8.00;99.90;;;;;;5010695;28;20045;-70
2023/04/13 06:49:15;;;;;;;5.57;1.10;;;8.00;99.90;;;;;;5026910;28;20056;-70
2023/04/13 06:51:40;;;;;;;9.20;1.30;;;8.00;99.90;;;;;;5011145;28;20038;-70
2023/04/13 06:54:06;;;;;;;9.17;1.53;;;7.90;99.90;;;;;;5012329;28;20045;-70
2023/04/13 06:56:32;;;;;;;6.70;1.13;;;7.90;99.90;;;;;;5007420;28;20045;-70
2023/04/13 06:59:00;;;;;;;5.30;1.20;;;7.90;99.90;;;;;;5024071;28;20413;-70
2023/04/13 07:01:29;;;;;;;6.82;1.15;;;7.90;99.90;;;;;;5016430;28;20073;-70
2023/04/13 07:03:55;;;;;;;6.80;0.90;;;8.00;99.90;;;;;;5008958;28;20045;-70
2023/04/13 07:06:21;;;;;;;5.35;1.33;;;8.20;99.90;;;;;;5002059;28;20073;-70
2023/04/13 07:08:47;;;;;;;5.75;1.05;;;8.30;99.90;;;;;;5014237;28;20524;-70
2023/04/13 07:11:13;;;;;;;4.70;1.10;;;8.30;99.90;;;;;;4994468;28;20044;-70
2023/04/13 07:13:39;;;;;;;3.97;0.93;;;8.20;99.90;;;;;;4997073;28;20053;-70
2023/04/13 07:16:10;;;;;;;9.10;0.82;;;8.20;99.90;;;;;;5010197;28;20041;-70
2023/04/13 07:18:37;;;;;;;6.95;1.23;;;8.20;99.90;;;;;;5041931;28;20076;-70
2023/04/13 07:21:03;;;;;;;6.40;1.00;;;8.10;99.90;;;;;;5011773;28;20590;-70
2023/04/13 07:23:29;;;;;;;4.28;0.90;;;8.00;99.90;;;;;;5023657;28;20121;-69
2023/04/13 07:25:55;;;;;;;5.50;1.03;;;8.00;99.90;;;;;;5017980;28;20132;-70
2023/04/13 07:28:30;;;;;;;4.53;0.98;;;8.00;99.90;;;;;;4994325;28;20052;-70
2023/04/13 07:30:55;;;;;;;6.93;1.23;;;8.00;99.90;;;;;;5023060;28;20054;-70
2023/04/13 07:33:21;;;;;;;4.37;0.90;;;8.00;99.90;;;;;;5021184;28;20452;-70
2023/04/13 07:35:49;;;;;;;12.90;1.53;;;8.10;99.90;;;;;;5001439;28;20042;-70
2023/04/13 07:38:15;;;;;;;5.82;0.90;;;8.20;99.90;;;;;;5019069;28;20041;-70
2023/04/13 07:40:41;;;;;;;4.95;0.70;;;8.30;99.90;;;;;;5001061;28;20037;-70
2023/04/13 07:43:06;;;;;;;4.73;0.80;;;8.50;99.90;;;;;;5019338;28;20037;-70
2023/04/13 07:45:32;;;;;;;4.57;0.70;;;8.50;99.90;;;;;;5013421;28;20319;-70
2023/04/13 07:47:58;;;;;;;3.30;0.70;;;8.50;99.90;;;;;;4991178;28;20075;-70
2023/04/13 07:50:24;;;;;;;3.80;0.60;;;8.50;99.90;;;;;;4994527;28;20517;-70
2023/04/13 07:52:50;;;;;;;5.97;0.90;;;8.50;99.90;;;;;;5017574;28;20040;-70
2023/04/13 07:55:18;;;;;;;8.35;1.05;;;8.60;99.90;;;;;;5026381;28;20045;-70
2023/04/13 07:57:46;;;;;;;7.43;0.90;;;8.60;99.90;;;;;;5023199;28;20041;-70
2023/04/13 08:00:13;;;;;;;4.55;1.05;;;8.50;99.90;;;;;;5015092;28;20033;-70
2023/04/13 08:02:40;;;;;;;6.50;1.25;;;8.50;99.90;;;;;;5017759;28;20034;-70
2023/04/13 08:05:06;;;;;;;3.67;0.80;;;8.30;99.90;;;;;;5022184;28;20110;-70
2023/04/13 08:07:32;;;;;;;5.10;1.10;;;8.20;99.90;;;;;;5010002;28;20048;-70
2023/04/13 08:10:00;;;;;;;4.05;0.63;;;8.10;99.90;;;;;;5025905;28;20049;-70
2023/04/13 08:12:26;;;;;;;4.03;0.60;;;8.10;99.90;;;;;;5012794;28;20361;-70
2023/04/13 08:14:52;;;;;;;5.43;0.60;;;8.40;99.90;;;;;;5026022;28;20444;-70
2023/04/13 08:17:17;;;;;;;4.13;0.70;;;8.70;99.90;;;;;;5016067;28;20100;-70
2023/04/13 08:19:43;;;;;;;4.20;0.80;;;9.10;99.90;;;;;;5021281;28;20048;-70
2023/04/13 08:22:11;;;;;;;3.33;0.37;;;9.40;99.90;;;;;;4994217;28;20057;-70
2023/04/13 08:24:37;;;;;;;5.25;0.80;;;9.40;99.90;;;;;;5006675;28;20282;-70
2023/04/13 08:27:06;;;;;;;3.27;0.27;;;9.30;99.90;;;;;;5025272;28;20064;-71
2023/04/13 08:29:32;;;;;;;2.70;0.30;;;9.10;99.90;;;;;;5026927;28;20053;-70
2023/04/13 08:31:57;;;;;;;3.47;0.50;;;8.90;99.90;;;;;;5006704;28;20042;-70
2023/04/13 08:34:23;;;;;;;4.57;0.73;;;8.80;99.90;;;;;;5017606;28;20042;-70
2023/04/13 08:36:49;;;;;;;6.73;0.67;;;8.60;99.90;;;;;;5005874;28;20386;-70
2023/04/13 08:39:15;;;;;;;5.45;0.85;;;8.50;99.90;;;;;;5021164;28;20076;-70
2023/04/13 08:41:46;;;;;;;6.07;0.93;;;8.50;99.90;;;;;;5028009;28;20489;-70
2023/04/13 08:44:12;;;;;;;1.98;0.40;;;8.50;99.90;;;;;;5014833;28;20101;-71
2023/04/13 08:46:40;;;;;;;1.65;0.30;;;8.00;99.90;;;;;;5029438;28;20583;-72
2023/04/13 08:49:08;;;;;;;4.20;0.43;;;7.40;99.90;;;;;;5025345;28;20404;-72
2023/04/13 08:51:34;;;;;;;3.42;0.52;;;7.10;99.90;;;;;;5022377;28;20148;-72
2023/04/13 08:53:59;;;;;;;5.53;0.73;;;7.00;99.90;;;;;;5021753;28;20067;-71
2023/04/13 08:56:26;;;;;;;8.07;1.07;;;7.20;99.90;;;;;;5017925;28;20096;-71
2023/04/13 08:58:57;;;;;;;7.30;0.60;;;7.50;99.90;;;;;;5005980;28;20097;-72
2023/04/13 09:01:25;;;;;;;10.27;1.17;;;7.80;99.90;;;;;;5019602;28;20033;-71
2023/04/13 09:04:05;;;;;;;4.43;0.60;;;8.00;99.90;;;;;;5006635;28;20051;-71
2023/04/13 09:06:36;;;;;;;3.05;0.50;;;8.00;99.90;;;;;;5016205;28;20033;-71
2023/04/13 09:09:14;;;;;;;3.90;0.50;;;8.00;99.90;;;;;;5006946;28;20392;-71
2023/04/13 09:11:41;;;;;;;7.45;0.47;;;7.90;99.90;;;;;;5006514;28;20048;-71
2023/04/13 09:14:08;;;;;;;3.97;0.45;;;7.80;99.90;;;;;;5007784;28;20048;-71
2023/04/13 09:16:41;;;;;;;1.92;0.30;;;7.80;99.90;;;;;;5021000;28;20132;-71
2023/04/13 09:19:07;;;;;;;2.40;0.22;;;7.70;99.90;;;;;;5011730;28;20184;-71
2023/04/13 09:21:43;;;;;;;0.70;0.10;;;7.60;99.90;;;;;;5023562;28;20038;-71
2023/04/13 09:24:11;;;;;;;1.02;0.10;;;7.50;99.90;;;;;;5003626;28;20041;-71
2023/04/13 09:26:45;;;;;;;1.33;0.28;;;7.30;99.90;;;;;;5005561;28;20049;-71
2023/04/13 09:29:19;;;;;;;0.65;0.20;;;7.30;99.90;;;;;;5011684;28;20465;-71
2023/04/13 09:31:46;;;;;;;3.30;0.45;;;7.20;99.90;;;;;;5028481;28;20551;-71
2023/04/13 09:34:13;;;;;;;0.95;0.28;;;7.30;99.90;;;;;;5011602;28;20421;-71
2023/04/13 09:36:40;;;;;;;1.40;0.40;;;7.20;99.90;;;;;;4994099;28;20037;-71
2023/04/13 09:39:06;;;;;;;2.42;0.32;;;7.20;99.90;;;;;;5018475;28;20049;-71
2023/04/13 09:41:37;;;;;;;1.80;0.30;;;7.20;99.90;;;;;;5007642;28;20042;-71
2023/04/13 09:44:17;;;;;;;1.25;0.20;;;7.30;99.90;;;;;;4996274;28;20046;-71
2023/04/13 09:46:44;;;;;;;2.53;0.30;;;7.40;99.90;;;;;;5041849;28;20045;-70
2023/04/13 09:49:10;;;;;;;4.40;0.70;;;7.70;99.90;;;;;;5024823;28;20063;-70
2023/04/13 09:51:38;;;;;;;2.63;0.40;;;8.00;99.90;;;;;;5005692;28;20048;-71
2023/04/13 09:54:05;;;;;;;6.07;0.60;;;8.20;99.90;;;;;;5027503;28;20124;-71
2023/04/13 09:56:51;;;;;;;4.38;0.60;;;8.40;99.90;;;;;;5010807;28;20084;-71
2023/04/13 09:59:22;;;;;;;8.10;1.17;;;8.70;99.90;;;;;;5008462;28;20120;-71
2023/04/13 10:01:48;;;;;;;6.45;1.08;;;8.90;99.90;;;;;;5022460;28;20408;-71
2023/04/13 10:04:15;;;;;;;4.00;1.02;;;9.10;99.90;;;;;;5023865;28;20102;-71
2023/04/13 10:06:45;;;;;;;6.97;0.88;;;9.40;99.90;;;;;;4997535;28;20041;-71
2023/04/13 10:09:11;;;;;;;7.78;1.80;;;9.80;99.90;;;;;;5004398;28;20504;-71
2023/04/13 10:11:45;;;;;;;5.65;1.20;;;9.90;99.90;;;;;;5015561;28;20046;-71
2023/04/13 10:14:15;;;;;;;4.68;0.80;;;9.80;99.90;;;;;;5005371;28;20103;-71
2023/04/13 10:17:09;;;;;;;3.33;0.68;;;9.60;99.90;;;;;;5010555;28;20481;-71
2023/04/13 10:19:44;;;;;;;9.70;1.45;;;9.60;99.90;;;;;;4993687;28;20126;-71
2023/04/13 10:22:11;;;;;;;10.77;1.48;;;9.50;99.90;;;;;;5009412;28;20045;-71
2023/04/13 10:24:38;;;;;;;4.68;1.33;;;9.20;99.90;;;;;;5006882;28;20401;-70
2023/04/13 10:27:31;;;;;;;8.75;0.73;;;9.20;99.90;;;;;;5002183;28;20056;-71
2023/04/13 10:29:59;;;;;;;4.07;0.70;;;9.20;99.90;;;;;;5009259;28;20057;-71
2023/04/13 10:32:27;;;;;;;7.85;1.13;;;9.10;99.90;;;;;;5021951;28;20227;-71
2023/04/13 10:34:54;;;;;;;5.60;0.95;;;9.20;99.90;;;;;;5006131;28;20041;-71
2023/04/13 10:37:23;;;;;;;10.05;1.70;;;8.90;99.90;;;;;;5000793;28;20370;-71
2023/04/13 10:39:59;;;;;;;7.65;1.25;;;8.50;99.90;;;;;;5016949;28;20120;-71
2023/04/13 10:42:25;;;;;;;8.65;1.50;;;8.30;99.90;;;;;;5015006;28;20092;-71
2023/04/13 10:44:52;;;;;;;9.77;1.77;;;8.30;99.90;;;;;;4990096;28;20089;-71
2023/04/13 10:47:20;;;;;;;8.63;2.05;;;8.70;99.90;;;;;;5000535;28;20046;-71
2023/04/13 10:49:47;;;;;;;12.50;2.47;;;9.00;99.90;;;;;;4996149;28;20045;-71
2023/04/13 10:52:14;;;;;;;16.63;2.75;;;9.20;99.90;;;;;;5014930;28;20087;-71
2023/04/13 10:54:41;;;;;;;13.60;2.63;;;9.20;99.90;;;;;;5010087;28;20052;-71
2023/04/13 10:57:09;;;;;;;14.40;2.50;;;9.10;99.90;;;;;;5026600;28;20041;-71
2023/04/13 10:59:44;;;;;;;13.93;2.40;;;9.10;99.90;;;;;;5005458;28;20136;-71
2023/04/13 11:02:11;;;;;;;10.48;2.17;;;9.20;99.90;;;;;;5004730;28;20038;-71
2023/04/13 11:04:43;;;;;;;11.77;2.25;;;9.20;99.90;;;;;;5010078;28;20501;-71
2023/04/13 11:07:27;;;;;;;11.40;2.60;;;9.30;99.90;;;;;;5006652;28;20512;-71
2023/04/13 11:09:57;;;;;;;12.45;1.90;;;9.40;99.90;;;;;;5027893;28;20057;-71
2023/04/13 11:12:23;;;;;;;15.50;2.38;;;9.60;99.90;;;;;;5010878;28;20067;-71
2023/04/13 11:14:50;;;;;;;15.73;2.13;;;9.70;99.90;;;;;;5027673;28;20124;-71
2023/04/13 11:17:18;;;;;;;10.23;2.22;;;9.80;99.90;;;;;;4998048;28;20038;-70
2023/04/13 11:19:52;;;;;;;10.30;2.55;;;10.00;99.90;;;;;;5028783;28;20041;-70
2023/04/13 11:22:21;;;;;;;15.15;2.30;;;10.10;99.90;;;;;;5030500;28;20045;-70
2023/04/13 11:24:48;;;;;;;12.82;2.15;;;10.20;99.90;;;;;;5006859;28;20045;-70
2023/04/13 11:27:18;;;;;;;9.43;1.85;;;10.20;99.90;;;;;;5013418;28;20037;-70
2023/04/13 11:29:44;;;;;;;11.07;2.00;;;10.30;99.90;;;;;;5012128;28;20382;-70
2023/04/13 11:32:19;;;;;;;13.33;1.73;;;10.30;99.90;;;;;;5006090;28;20045;-70
2023/04/13 11:34:48;;;;;;;13.57;1.67;;;10.20;99.90;;;;;;5025404;28;20041;-71
2023/04/13 11:37:14;;;;;;;9.98;1.65;;;10.30;99.90;;;;;;5013612;28;20043;-71
2023/04/13 11:39:42;;;;;;;11.23;2.35;;;10.00;99.90;;;;;;5016011;28;20049;-71
2023/04/13 11:42:09;;;;;;;21.08;2.65;;;9.80;99.90;;;;;;5018135;28;20042;-71
2023/04/13 11:44:35;;;;;;;12.43;2.22;;;9.70;99.90;;;;;;5020519;28;20413;-71
2023/04/13 11:47:02;;;;;;;10.57;1.63;;;9.80;99.90;;;;;;5020667;28;20072;-71
2023/04/13 11:49:30;;;;;;;12.90;1.65;;;10.00;99.90;;;;;;5028631;28;20048;-71
2023/04/13 11:51:56;;;;;;;9.48;2.30;;;10.10;99.90;;;;;;5020860;28;20067;-71
2023/04/13 11:54:22;;;;;;;11.33;2.17;;;10.20;99.90;;;;;;5006325;28;20037;-70
2023/04/13 11:56:48;;;;;;;13.68;2.13;;;10.30;99.90;;;;;;5025002;28;20283;-70
2023/04/13 11:59:14;;;;;;;12.77;1.90;;;10.30;99.90;;;;;;5029898;28;20046;-70
2023/04/13 12:01:46;;;;;;;14.60;2.00;;;10.20;99.90;;;;;;5030011;28;20103;-70
2023/04/13 12:04:12;;;;;;;13.77;1.98;;;10.00;99.90;;;;;;5024881;28;20372;-70
2023/04/13 12:06:40;;;;;;;16.20;2.45;;;9.90;99.90;;;;;;4996695;28;20045;-70
2023/04/13 12:09:08;;;;;;;10.15;2.15;;;10.00;99.90;;;;;;5026960;28;20045;-70
2023/04/13 12:11:41;;;;;;;14.95;2.40;;;10.00;99.90;;;;;;5007404;28;20045;-70
2023/04/13 12:14:17;;;;;;;14.57;1.98;;;9.90;99.90;;;;;;5024254;28;20045;-70
2023/04/13 12:16:47;;;;;;;10.57;2.03;;;9.80;99.90;;;;;;5010976;28;20468;-70
2023/04/13 12:19:13;;;;;;;13.40;1.95;;;9.70;99.90;;;;;;5013410;28;20042;-70
2023/04/13 12:21:50;;;;;;;12.83;1.60;;;9.60;99.90;;;;;;5024330;28;20040;-70
2023/04/13 12:24:15;;;;;;;10.75;1.80;;;9.50;99.90;;;;;;5024165;28;20100;-70
2023/04/13 12:26:41;;;;;;;12.30;2.03;;;9.60;99.90;;;;;;5012019;28;20030;-70
2023/04/13 12:29:08;;;;;;;10.97;1.70;;;9.70;99.90;;;;;;4988833;28;20148;-70
2023/04/13 12:31:35;;;;;;;8.82;1.60;;;9.90;99.90;;;;;;5028968;28;20107;-70
2023/04/13 12:34:02;;;;;;;14.65;2.45;;;10.10;99.90;;;;;;5024800;28;20045;-70
2023/04/13 12:36:30;;;;;;;11.10;2.03;;;10.30;99.90;;;;;;5019442;28;20100;-70
2023/04/13 12:38:58;;;;;;;9.27;2.08;;;10.30;99.90;;;;;;5023909;28;20116;-70
2023/04/13 12:41:24;;;;;;;12.18;1.65;;;10.10;99.90;;;;;;5027547;28;20045;-71
2023/04/13 12:43:50;;;;;;;9.68;1.90;;;10.20;99.90;;;;;;5011046;28;20045;-70
2023/04/13 12:46:16;;;;;;;10.53;1.60;;;10.20;99.90;;;;;;5025600;28;20060;-70
2023/04/13 12:48:42;;;;;;;11.00;2.03;;;10.20;99.90;;;;;;5008245;28;20433;-70
2023/04/13 12:51:07;;;;;;;16.40;2.07;;;10.10;99.90;;;;;;5026989;28;20049;-70
2023/04/13 12:53:36;;;;;;;10.97;1.80;;;10.10;99.90;;;;;;5028679;28;20444;-70
2023/04/13 12:56:02;;;;;;;12.52;2.38;;;10.10;99.90;;;;;;5025081;28;20143;-70
2023/04/13 12:58:28;;;;;;;11.87;2.00;;;9.90;99.90;;;;;;5008281;28;20227;-70